createdAt,value
2023-05-17T00:00:52.859Z,1015.50
2023-05-17T00:01:52.798Z,1015.53
2023-05-17T00:02:52.928Z,1015.56
2023-05-17T00:03:52.810Z,1015.57
2023-05-17T00:04:52.807Z,1015.60
2023-05-17T00:05:52.787Z,1015.53
2023-05-17T00:06:52.838Z,1015.55
2023-05-17T00:07:52.737Z,1015.57
2023-05-17T00:08:52.761Z,1015.59
2023-05-17T00:09:52.722Z,1015.63
2023-05-17T00:10:52.713Z,1015.62
2023-05-17T00:11:52.702Z,1015.60
2023-05-17T00:12:52.676Z,1015.58
2023-05-17T00:13:52.677Z,1015.56
2023-05-17T00:14:52.653Z,1015.57
2023-05-17T00:15:52.705Z,1015.58
2023-05-17T00:16:52.680Z,1015.59
2023-05-17T00:17:52.761Z,1015.62
2023-05-17T00:18:52.741Z,1015.61
2023-05-17T00:19:52.764Z,1015.60
2023-05-17T00:20:52.604Z,1015.61
2023-05-17T00:21:52.598Z,1015.61
2023-05-17T00:22:52.735Z,1015.59
2023-05-17T00:23:52.580Z,1015.57
2023-05-17T00:24:52.538Z,1015.61
2023-05-17T00:25:52.553Z,1015.57
2023-05-17T00:26:52.526Z,1015.60
2023-05-17T00:27:52.521Z,1015.56
2023-05-17T00:28:52.496Z,1015.59
2023-05-17T00:29:52.513Z,1015.57
2023-05-17T00:30:52.483Z,1015.56
2023-05-17T00:31:52.457Z,1015.55
2023-05-17T00:32:52.494Z,1015.59
2023-05-17T00:33:52.443Z,1015.57
2023-05-17T00:34:52.498Z,1015.60
2023-05-17T00:35:52.451Z,1015.66
2023-05-17T00:36:52.416Z,1015.66
2023-05-17T00:37:52.406Z,1015.66
2023-05-17T00:38:52.534Z,1015.64
2023-05-17T00:39:52.380Z,1015.65
2023-05-17T00:40:52.370Z,1015.66
2023-05-17T00:41:52.367Z,1015.65
2023-05-17T00:42:52.336Z,1015.65
2023-05-17T00:43:52.335Z,1015.63
2023-05-17T00:44:52.331Z,1015.66
2023-05-17T00:45:52.324Z,1015.63
2023-05-17T00:46:52.335Z,1015.65
2023-05-17T00:47:52.422Z,1015.66
2023-05-17T00:48:52.278Z,1015.65
2023-05-17T00:49:52.274Z,1015.66
2023-05-17T00:50:52.285Z,1015.68
2023-05-17T00:51:52.233Z,1015.67
2023-05-17T00:52:52.250Z,1015.66
2023-05-17T00:53:52.229Z,1015.69
2023-05-17T00:54:52.365Z,1015.74
2023-05-17T00:55:52.207Z,1015.73
2023-05-17T00:56:52.177Z,1015.71
2023-05-17T00:57:52.196Z,1015.70
2023-05-17T00:58:52.168Z,1015.75
2023-05-17T00:59:52.208Z,1015.74
2023-05-17T01:00:52.157Z,1015.74
2023-05-17T01:01:52.151Z,1015.76
2023-05-17T01:02:52.214Z,1015.75
2023-05-17T01:03:52.213Z,1015.74
2023-05-17T01:04:52.192Z,1015.71
2023-05-17T01:05:52.133Z,1015.73
2023-05-17T01:06:52.132Z,1015.77
2023-05-17T01:07:52.068Z,1015.78
2023-05-17T01:08:52.087Z,1015.81
2023-05-17T01:09:52.046Z,1015.78
2023-05-17T01:10:52.053Z,1015.86
2023-05-17T01:11:52.050Z,1015.86
2023-05-17T01:12:52.006Z,1015.89
2023-05-17T01:13:52.014Z,1015.90
2023-05-17T01:14:51.984Z,1015.93
2023-05-17T01:15:51.982Z,1015.87
2023-05-17T01:16:51.957Z,1015.90
2023-05-17T01:17:52.065Z,1015.91
2023-05-17T01:18:52.045Z,1015.91
2023-05-17T01:19:52.049Z,1015.94
2023-05-17T01:20:51.925Z,1015.94
2023-05-17T01:21:51.912Z,1015.95
2023-05-17T01:22:51.910Z,1015.98
2023-05-17T01:23:51.901Z,1015.93
2023-05-17T01:24:51.887Z,1015.97
2023-05-17T01:25:51.882Z,1015.96
2023-05-17T01:26:51.942Z,1015.96
2023-05-17T01:27:51.864Z,1015.98
2023-05-17T01:28:51.835Z,1016.01
2023-05-17T01:29:51.816Z,1016.00
2023-05-17T01:30:51.797Z,1015.99
2023-05-17T01:31:51.814Z,1015.99
2023-05-17T01:32:51.864Z,1015.99
2023-05-17T01:33:51.829Z,1016.02
2023-05-17T01:34:51.788Z,1016.00
2023-05-17T01:35:51.772Z,1016.03
2023-05-17T01:36:51.769Z,1015.99
2023-05-17T01:37:51.761Z,1016.00
2023-05-17T01:38:51.726Z,1016.03
2023-05-17T01:39:51.700Z,1016.00
2023-05-17T01:40:51.703Z,1015.99
2023-05-17T01:41:51.720Z,1016.01
2023-05-17T01:42:51.777Z,1016.05
2023-05-17T01:43:51.654Z,1016.04
2023-05-17T01:44:51.662Z,1016.06
2023-05-17T01:45:51.662Z,1016.08
2023-05-17T01:46:51.646Z,1016.09
2023-05-17T01:47:51.697Z,1016.09
2023-05-17T01:48:51.665Z,1016.05
2023-05-17T01:49:51.665Z,1016.10
2023-05-17T01:50:51.579Z,1016.10
2023-05-17T01:51:51.570Z,1016.07
2023-05-17T01:52:51.571Z,1016.13
2023-05-17T01:53:51.576Z,1016.14
2023-05-17T01:54:51.562Z,1016.15
2023-05-17T01:55:51.559Z,1016.19
2023-05-17T01:56:51.535Z,1016.18
2023-05-17T01:57:51.517Z,1016.18
2023-05-17T01:58:51.599Z,1016.20
2023-05-17T01:59:51.511Z,1016.16
2023-05-17T02:00:51.493Z,1016.19
2023-05-17T02:01:51.486Z,1016.19
2023-05-17T02:02:51.496Z,1016.23
2023-05-17T02:03:51.537Z,1016.26
2023-05-17T02:04:51.536Z,1016.22
2023-05-17T02:05:51.436Z,1016.20
2023-05-17T02:06:51.425Z,1016.26
2023-05-17T02:07:51.424Z,1016.26
2023-05-17T02:08:51.409Z,1016.28
2023-05-17T02:09:51.382Z,1016.23
2023-05-17T02:10:51.357Z,1016.24
2023-05-17T02:11:51.358Z,1016.22
2023-05-17T02:12:51.364Z,1016.25
2023-05-17T02:13:51.371Z,1016.20
2023-05-17T02:14:51.500Z,1016.23
2023-05-17T02:15:51.306Z,1016.21
2023-05-17T02:16:51.304Z,1016.24
2023-05-17T02:17:51.416Z,1016.25
2023-05-17T02:18:51.379Z,1016.27
2023-05-17T02:19:51.270Z,1016.26
2023-05-17T02:20:51.261Z,1016.27
2023-05-17T02:21:51.261Z,1016.25
2023-05-17T02:22:51.245Z,1016.27
2023-05-17T02:23:51.229Z,1016.21
2023-05-17T02:24:51.229Z,1016.20
2023-05-17T02:25:51.202Z,1016.21
2023-05-17T02:26:51.207Z,1016.21
2023-05-17T02:27:51.172Z,1016.24
2023-05-17T02:28:51.158Z,1016.20
2023-05-17T02:29:51.217Z,1016.20
2023-05-17T02:30:51.263Z,1016.15
2023-05-17T02:31:51.126Z,1016.18
2023-05-17T02:32:51.255Z,1016.18
2023-05-17T02:33:51.169Z,1016.19
2023-05-17T02:34:51.139Z,1016.20
2023-05-17T02:35:51.096Z,1016.24
2023-05-17T02:36:51.133Z,1016.19
2023-05-17T02:37:51.080Z,1016.27
2023-05-17T02:38:51.068Z,1016.33
2023-05-17T02:39:51.050Z,1016.30
2023-05-17T02:40:51.045Z,1016.27
2023-05-17T02:41:51.023Z,1016.27
2023-05-17T02:42:51.030Z,1016.23
2023-05-17T02:43:51.016Z,1016.27
2023-05-17T02:44:51.046Z,1016.22
2023-05-17T02:45:51.004Z,1016.23
2023-05-17T02:46:51.139Z,1016.23
2023-05-17T02:47:51.053Z,1016.24
2023-05-17T02:48:50.948Z,1016.20
2023-05-17T02:49:50.954Z,1016.21
2023-05-17T02:50:50.933Z,1016.22
2023-05-17T02:51:50.915Z,1016.18
2023-05-17T02:52:50.911Z,1016.23
2023-05-17T02:53:50.907Z,1016.21
2023-05-17T02:54:50.873Z,1016.22
2023-05-17T02:55:50.903Z,1016.25
2023-05-17T02:56:50.873Z,1016.22
2023-05-17T02:57:50.878Z,1016.24
2023-05-17T02:58:50.860Z,1016.25
2023-05-17T02:59:50.852Z,1016.25
2023-05-17T03:00:50.838Z,1016.26
2023-05-17T03:01:50.836Z,1016.26
2023-05-17T03:02:50.984Z,1016.28
2023-05-17T03:03:50.992Z,1016.28
2023-05-17T03:04:50.893Z,1016.31
2023-05-17T03:05:50.781Z,1016.25
2023-05-17T03:06:50.751Z,1016.27
2023-05-17T03:07:50.747Z,1016.36
2023-05-17T03:08:50.747Z,1016.31
2023-05-17T03:09:50.772Z,1016.34
2023-05-17T03:10:50.724Z,1016.30
2023-05-17T03:11:50.699Z,1016.27
2023-05-17T03:12:50.671Z,1016.31
2023-05-17T03:13:50.685Z,1016.34
2023-05-17T03:14:50.663Z,1016.37
2023-05-17T03:15:50.639Z,1016.30
2023-05-17T03:16:50.645Z,1016.30
2023-05-17T03:17:50.719Z,1016.30
2023-05-17T03:18:50.859Z,1016.34
2023-05-17T03:19:50.690Z,1016.35
2023-05-17T03:20:50.590Z,1016.34
2023-05-17T03:21:50.607Z,1016.32
2023-05-17T03:22:50.586Z,1016.37
2023-05-17T03:23:50.573Z,1016.41
2023-05-17T03:24:50.536Z,1016.43
2023-05-17T03:25:50.537Z,1016.40
2023-05-17T03:26:50.540Z,1016.47
2023-05-17T03:27:50.534Z,1016.44
2023-05-17T03:28:50.517Z,1016.44
2023-05-17T03:29:50.500Z,1016.36
2023-05-17T03:30:50.579Z,1016.41
2023-05-17T03:31:50.463Z,1016.36
2023-05-17T03:32:50.560Z,1016.38
2023-05-17T03:33:50.591Z,1016.38
2023-05-17T03:34:50.703Z,1016.44
2023-05-17T03:35:50.458Z,1016.46
2023-05-17T03:36:50.418Z,1016.51
2023-05-17T03:37:50.417Z,1016.56
2023-05-17T03:38:50.450Z,1016.56
2023-05-17T03:39:50.388Z,1016.52
2023-05-17T03:40:50.367Z,1016.57
2023-05-17T03:41:50.389Z,1016.55
2023-05-17T03:42:50.337Z,1016.57
2023-05-17T03:43:50.363Z,1016.62
2023-05-17T03:44:50.325Z,1016.62
2023-05-17T03:45:50.326Z,1016.58
2023-05-17T03:46:50.307Z,1016.60
2023-05-17T03:47:50.334Z,1016.66
2023-05-17T03:48:50.488Z,1016.63
2023-05-17T03:49:50.286Z,1016.65
2023-05-17T03:50:50.419Z,1016.62
2023-05-17T03:51:50.237Z,1016.66
2023-05-17T03:52:50.233Z,1016.66
2023-05-17T03:53:50.266Z,1016.64
2023-05-17T03:54:50.236Z,1016.70
2023-05-17T03:55:50.199Z,1016.70
2023-05-17T03:56:50.203Z,1016.68
2023-05-17T03:57:50.188Z,1016.70
2023-05-17T03:58:50.191Z,1016.69
2023-05-17T03:59:50.182Z,1016.71
2023-05-17T04:00:50.138Z,1016.69
2023-05-17T04:01:50.201Z,1016.68
2023-05-17T04:02:50.136Z,1016.67
2023-05-17T04:03:50.134Z,1016.71
2023-05-17T04:04:50.177Z,1016.69
2023-05-17T04:05:50.102Z,1016.65
2023-05-17T04:06:50.222Z,1016.61
2023-05-17T04:07:50.076Z,1016.60
2023-05-17T04:08:50.068Z,1016.51
2023-05-17T04:09:50.095Z,1016.57
2023-05-17T04:10:50.061Z,1016.61
2023-05-17T04:11:50.048Z,1016.57
2023-05-17T04:12:50.008Z,1016.61
2023-05-17T04:13:50.002Z,1016.66
2023-05-17T04:14:49.981Z,1016.67
2023-05-17T04:15:50.022Z,1016.67
2023-05-17T04:16:49.994Z,1016.74
2023-05-17T04:17:50.072Z,1016.73
2023-05-17T04:18:50.079Z,1016.80
2023-05-17T04:19:50.061Z,1016.79
2023-05-17T04:20:49.945Z,1016.84
2023-05-17T04:21:49.940Z,1016.87
2023-05-17T04:22:50.127Z,1016.85
2023-05-17T04:23:49.913Z,1016.83
2023-05-17T04:24:49.888Z,1016.86
2023-05-17T04:25:49.878Z,1016.91
2023-05-17T04:26:49.858Z,1016.86
2023-05-17T04:27:49.910Z,1016.92
2023-05-17T04:28:49.864Z,1016.92
2023-05-17T04:29:49.838Z,1016.92
2023-05-17T04:30:49.833Z,1016.97
2023-05-17T04:31:49.824Z,1016.98
2023-05-17T04:32:49.853Z,1016.97
2023-05-17T04:33:49.837Z,1017.02
2023-05-17T04:34:49.785Z,1017.03
2023-05-17T04:35:49.782Z,1017.09
2023-05-17T04:36:49.742Z,1016.99
2023-05-17T04:37:49.754Z,1017.04
2023-05-17T04:38:49.947Z,1017.06
2023-05-17T04:39:49.723Z,1017.05
2023-05-17T04:40:49.706Z,1017.04
2023-05-17T04:41:49.711Z,1017.04
2023-05-17T04:42:49.690Z,1017.07
2023-05-17T04:43:49.709Z,1017.03
2023-05-17T04:44:49.673Z,1017.08
2023-05-17T04:45:49.714Z,1017.11
2023-05-17T04:46:49.638Z,1017.09
2023-05-17T04:47:49.700Z,1017.11
2023-05-17T04:48:49.776Z,1017.06
2023-05-17T04:49:49.627Z,1017.04
2023-05-17T04:50:49.606Z,1017.02
2023-05-17T04:51:49.586Z,1017.02
2023-05-17T04:52:49.605Z,1017.05
2023-05-17T04:53:49.558Z,1017.10
2023-05-17T04:54:49.682Z,1017.09
2023-05-17T04:55:49.553Z,1017.07
2023-05-17T04:56:49.544Z,1017.06
2023-05-17T04:57:49.521Z,1017.10
2023-05-17T04:58:50.999Z,1017.16
2023-05-17T04:59:49.547Z,1017.16
2023-05-17T05:00:49.484Z,1017.15
2023-05-17T05:01:49.567Z,1017.13
2023-05-17T05:02:49.519Z,1017.12
2023-05-17T05:03:49.522Z,1017.17
2023-05-17T05:04:49.508Z,1017.16
2023-05-17T05:05:49.908Z,1017.18
2023-05-17T05:06:49.416Z,1017.24
2023-05-17T05:07:49.397Z,1017.25
2023-05-17T05:08:49.426Z,1017.23
2023-05-17T05:09:49.405Z,1017.28
2023-05-17T05:10:49.516Z,1017.27
2023-05-17T05:11:49.384Z,1017.33
2023-05-17T05:12:49.355Z,1017.31
2023-05-17T05:13:49.366Z,1017.37
2023-05-17T05:14:49.387Z,1017.37
2023-05-17T05:15:49.323Z,1017.36
2023-05-17T05:16:49.338Z,1017.34
2023-05-17T05:17:49.395Z,1017.37
2023-05-17T05:18:49.511Z,1017.44
2023-05-17T05:19:49.335Z,1017.40
2023-05-17T05:20:49.262Z,1017.41
2023-05-17T05:21:49.258Z,1017.49
2023-05-17T05:22:49.293Z,1017.46
2023-05-17T05:23:49.246Z,1017.46
2023-05-17T05:24:49.213Z,1017.49
2023-05-17T05:25:49.213Z,1017.45
2023-05-17T05:26:49.300Z,1017.51
2023-05-17T05:27:49.219Z,1017.48
2023-05-17T05:28:49.192Z,1017.45
2023-05-17T05:29:49.162Z,1017.43
2023-05-17T05:30:49.157Z,1017.47
2023-05-17T05:31:49.182Z,1017.50
2023-05-17T05:32:49.240Z,1017.49
2023-05-17T05:33:49.166Z,1017.56
2023-05-17T05:34:49.157Z,1017.56
2023-05-17T05:35:49.113Z,1017.55
2023-05-17T05:36:49.074Z,1017.64
2023-05-17T05:37:49.079Z,1017.67
2023-05-17T05:38:49.070Z,1017.59
2023-05-17T05:39:49.040Z,1017.57
2023-05-17T05:40:49.039Z,1017.58
2023-05-17T05:41:49.040Z,1017.57
2023-05-17T05:42:49.158Z,1017.57
2023-05-17T05:43:49.023Z,1017.61
2023-05-17T05:44:49.032Z,1017.59
2023-05-17T05:45:48.988Z,1017.56
2023-05-17T05:46:48.989Z,1017.60
2023-05-17T05:47:49.088Z,1017.62
2023-05-17T05:48:49.006Z,1017.52
2023-05-17T05:49:48.932Z,1017.49
2023-05-17T05:50:49.006Z,1017.46
2023-05-17T05:51:49.361Z,1017.47
2023-05-17T05:52:52.495Z,1017.49
2023-05-17T05:53:48.919Z,1017.47
2023-05-17T05:54:48.895Z,1017.52
2023-05-17T05:55:48.928Z,1017.52
2023-05-17T05:56:48.872Z,1017.53
2023-05-17T05:57:48.892Z,1017.48
2023-05-17T05:58:49.226Z,1017.55
2023-05-17T05:59:48.849Z,1017.57
2023-05-17T06:00:48.847Z,1017.60
2023-05-17T06:01:48.854Z,1017.57
2023-05-17T06:02:48.862Z,1017.58
2023-05-17T06:03:48.935Z,1017.59
2023-05-17T06:04:48.768Z,1017.56
2023-05-17T06:05:48.928Z,1017.60
2023-05-17T06:06:48.850Z,1017.59
2023-05-17T06:07:48.770Z,1017.58
2023-05-17T06:08:48.741Z,1017.57
2023-05-17T06:09:48.858Z,1017.65
2023-05-17T06:10:48.940Z,1017.60
2023-05-17T06:11:48.743Z,1017.59
2023-05-17T06:12:48.691Z,1017.59
2023-05-17T06:13:48.692Z,1017.61
2023-05-17T06:14:48.829Z,1017.63
2023-05-17T06:15:48.961Z,1017.65
2023-05-17T06:16:48.646Z,1017.62
2023-05-17T06:17:48.817Z,1017.64
2023-05-17T06:18:51.120Z,1017.59
2023-05-17T06:19:48.714Z,1017.63
2023-05-17T06:20:48.659Z,1017.65
2023-05-17T06:21:48.724Z,1017.68
2023-05-17T06:22:48.598Z,1017.68
2023-05-17T06:23:48.572Z,1017.74
2023-05-17T06:24:48.607Z,1017.74
2023-05-17T06:25:48.566Z,1017.71
2023-05-17T06:26:48.557Z,1017.71
2023-05-17T06:27:48.536Z,1017.75
2023-05-17T06:28:48.532Z,1017.72
2023-05-17T06:29:48.512Z,1017.77
2023-05-17T06:30:48.528Z,1017.81
2023-05-17T06:31:48.516Z,1017.76
2023-05-17T06:32:48.521Z,1017.76
2023-05-17T06:33:48.500Z,1017.76
2023-05-17T06:34:48.467Z,1017.80
2023-05-17T06:36:49.475Z,1017.87
2023-05-17T06:37:48.400Z,1017.95
2023-05-17T06:38:48.462Z,1017.91
2023-05-17T06:39:55.477Z,1017.91
2023-05-17T06:40:49.388Z,1017.96
2023-05-17T06:41:48.373Z,1017.96
2023-05-17T06:42:48.391Z,1017.99
2023-05-17T06:43:48.361Z,1018.00
2023-05-17T06:44:48.380Z,1017.96
2023-05-17T06:45:48.350Z,1018.00
2023-05-17T06:46:48.433Z,1018.02
2023-05-17T06:47:48.437Z,1018.03
2023-05-17T06:48:50.848Z,1017.97
2023-05-17T06:49:48.372Z,1018.03
2023-05-17T06:50:48.331Z,1018.00
2023-05-17T06:51:48.490Z,1018.05
2023-05-17T06:52:48.241Z,1018.07
2023-05-17T06:53:48.236Z,1018.07
2023-05-17T06:54:48.406Z,1018.09
2023-05-17T06:55:48.290Z,1018.08
2023-05-17T06:56:48.241Z,1018.09
2023-05-17T06:57:48.202Z,1018.11
2023-05-17T06:58:48.173Z,1018.13
2023-05-17T06:59:48.160Z,1018.09
2023-05-17T07:00:48.173Z,1018.14
2023-05-17T07:01:48.186Z,1018.14
2023-05-17T07:02:48.369Z,1018.10
2023-05-17T07:03:48.245Z,1018.12
2023-05-17T07:04:48.130Z,1018.12
2023-05-17T07:05:48.104Z,1018.16
2023-05-17T07:06:48.126Z,1018.13
2023-05-17T07:07:48.140Z,1018.20
2023-05-17T07:08:48.123Z,1018.15
2023-05-17T07:09:48.830Z,1018.16
2023-05-17T07:10:48.094Z,1018.18
2023-05-17T07:11:48.396Z,1018.19
2023-05-17T07:12:48.027Z,1018.20
2023-05-17T07:13:48.019Z,1018.20
2023-05-17T07:14:48.007Z,1018.19
2023-05-17T07:15:48.043Z,1018.15
2023-05-17T07:16:48.106Z,1018.18
2023-05-17T07:17:48.059Z,1018.23
2023-05-17T07:18:48.164Z,1018.16
2023-05-17T07:19:48.068Z,1018.21
2023-05-17T07:20:47.935Z,1018.14
2023-05-17T07:21:48.050Z,1018.15
2023-05-17T07:22:47.901Z,1018.20
2023-05-17T07:23:47.928Z,1018.17
2023-05-17T07:24:47.900Z,1018.20
2023-05-17T07:25:47.925Z,1018.22
2023-05-17T07:26:48.178Z,1018.18
2023-05-17T07:27:47.869Z,1018.21
2023-05-17T07:28:47.883Z,1018.24
2023-05-17T07:29:47.835Z,1018.25
2023-05-17T07:30:47.835Z,1018.21
2023-05-17T07:31:47.822Z,1018.23
2023-05-17T07:32:47.867Z,1018.23
2023-05-17T07:33:47.849Z,1018.23
2023-05-17T07:34:48.444Z,1018.18
2023-05-17T07:35:48.440Z,1018.18
2023-05-17T07:36:47.760Z,1018.18
2023-05-17T07:37:47.746Z,1018.17
2023-05-17T07:38:47.856Z,1018.20
2023-05-17T07:39:47.728Z,1018.18
2023-05-17T07:40:47.724Z,1018.25
2023-05-17T07:41:49.397Z,1018.21
2023-05-17T07:42:47.715Z,1018.17
2023-05-17T07:43:48.355Z,1018.25
2023-05-17T07:44:47.654Z,1018.24
2023-05-17T07:45:47.652Z,1018.23
2023-05-17T07:46:47.675Z,1018.26
2023-05-17T07:47:47.727Z,1018.25
2023-05-17T07:48:47.756Z,1018.28
2023-05-17T07:49:47.624Z,1018.27
2023-05-17T07:50:47.773Z,1018.33
2023-05-17T07:51:48.463Z,1018.35
2023-05-17T07:52:47.646Z,1018.38
2023-05-17T07:53:47.572Z,1018.40
2023-05-17T07:54:47.576Z,1018.40
2023-05-17T07:55:47.545Z,1018.46
2023-05-17T07:56:47.529Z,1018.37
2023-05-17T07:57:47.549Z,1018.37
2023-05-17T07:58:48.340Z,1018.39
2023-05-17T07:59:47.950Z,1018.32
2023-05-17T08:00:47.487Z,1018.45
2023-05-17T08:01:47.461Z,1018.35
2023-05-17T08:02:47.482Z,1018.33
2023-05-17T08:03:47.493Z,1018.32
2023-05-17T08:04:47.524Z,1018.34
2023-05-17T08:05:47.589Z,1018.37
2023-05-17T08:06:47.478Z,1018.31
2023-05-17T08:07:47.405Z,1018.35
2023-05-17T08:08:47.423Z,1018.37
2023-05-17T08:09:47.411Z,1018.38
2023-05-17T08:10:47.384Z,1018.39
2023-05-17T08:11:47.389Z,1018.35
2023-05-17T08:12:47.351Z,1018.35
2023-05-17T08:13:47.353Z,1018.35
2023-05-17T08:14:47.384Z,1018.39
2023-05-17T08:15:47.454Z,1018.35
2023-05-17T08:16:47.325Z,1018.37
2023-05-17T08:17:47.384Z,1018.38
2023-05-17T08:18:47.790Z,1018.41
2023-05-17T08:19:48.023Z,1018.30
2023-05-17T08:20:47.262Z,1018.36
2023-05-17T08:21:47.246Z,1018.43
2023-05-17T08:22:47.514Z,1018.35
2023-05-17T08:23:47.353Z,1018.42
2023-05-17T08:24:47.223Z,1018.40
2023-05-17T08:25:47.434Z,1018.41
2023-05-17T08:26:47.191Z,1018.45
2023-05-17T08:27:47.220Z,1018.40
2023-05-17T08:28:47.165Z,1018.30
2023-05-17T08:29:47.164Z,1018.36
2023-05-17T08:30:47.178Z,1018.35
2023-05-17T08:31:47.137Z,1018.43
2023-05-17T08:32:47.228Z,1018.44
2023-05-17T08:33:47.134Z,1018.35
2023-05-17T08:34:47.085Z,1018.39
2023-05-17T08:35:47.119Z,1018.38
2023-05-17T08:36:47.096Z,1018.29
2023-05-17T08:37:47.106Z,1018.33
2023-05-17T08:38:47.155Z,1018.44
2023-05-17T08:39:47.125Z,1018.40
2023-05-17T08:40:47.021Z,1018.33
2023-05-17T08:41:47.024Z,1018.24
2023-05-17T08:42:47.015Z,1018.29
2023-05-17T08:43:47.004Z,1018.37
2023-05-17T08:44:47.000Z,1018.31
2023-05-17T08:45:46.986Z,1018.30
2023-05-17T08:46:47.156Z,1018.26
2023-05-17T08:47:47.056Z,1018.34
2023-05-17T08:48:46.985Z,1018.33
2023-05-17T08:49:48.224Z,1018.38
2023-05-17T08:50:47.025Z,1018.30
2023-05-17T08:51:46.887Z,1018.30
2023-05-17T08:52:46.963Z,1018.25
2023-05-17T08:53:46.884Z,1018.33
2023-05-17T08:54:47.444Z,1018.26
2023-05-17T08:55:46.860Z,1018.29
2023-05-17T08:56:46.887Z,1018.30
2023-05-17T08:57:46.859Z,1018.36
2023-05-17T08:58:56.519Z,1018.33
2023-05-17T08:59:47.832Z,1018.34
2023-05-17T09:00:46.805Z,1018.30
2023-05-17T09:01:46.766Z,1018.33
2023-05-17T09:02:46.889Z,1018.29
2023-05-17T09:03:46.849Z,1018.35
2023-05-17T09:04:46.852Z,1018.43
2023-05-17T09:05:46.763Z,1018.30
2023-05-17T09:06:46.722Z,1018.23
2023-05-17T09:07:46.746Z,1018.35
2023-05-17T09:08:46.738Z,1018.25
2023-05-17T09:09:46.693Z,1018.25
2023-05-17T09:10:46.718Z,1018.24
2023-05-17T09:11:46.723Z,1018.31
2023-05-17T09:12:46.725Z,1018.23
2023-05-17T09:13:46.659Z,1018.36
2023-05-17T09:14:46.666Z,1018.20
2023-05-17T09:15:46.612Z,1018.26
2023-05-17T09:16:46.634Z,1018.21
2023-05-17T09:17:46.714Z,1018.24
2023-05-17T09:18:46.851Z,1018.26
2023-05-17T09:19:46.773Z,1018.37
2023-05-17T09:20:46.569Z,1018.24
2023-05-17T09:21:46.565Z,1018.07
2023-05-17T09:22:46.635Z,1018.25
2023-05-17T09:23:51.563Z,1018.25
2023-05-17T09:24:47.516Z,1018.27
2023-05-17T09:25:46.494Z,1018.27
2023-05-17T09:26:46.550Z,1018.17
2023-05-17T09:27:46.547Z,1018.26
2023-05-17T09:28:46.598Z,1018.24
2023-05-17T09:29:46.518Z,1018.27
2023-05-17T09:30:46.540Z,1018.30
2023-05-17T09:31:46.499Z,1018.33
2023-05-17T09:32:46.631Z,1018.42
2023-05-17T09:33:46.465Z,1018.29
2023-05-17T09:34:46.425Z,1018.32
2023-05-17T09:35:46.433Z,1018.31
2023-05-17T09:36:46.391Z,1018.30
2023-05-17T09:37:46.372Z,1018.33
2023-05-17T09:38:46.394Z,1018.35
2023-05-17T09:39:46.380Z,1018.40
2023-05-17T09:40:46.346Z,1018.36
2023-05-17T09:41:46.333Z,1018.41
2023-05-17T09:42:46.475Z,1018.35
2023-05-17T09:43:46.325Z,1018.33
2023-05-17T09:44:46.366Z,1018.35
2023-05-17T09:45:46.305Z,1018.35
2023-05-17T09:46:46.335Z,1018.37
2023-05-17T09:47:46.323Z,1018.34
2023-05-17T09:48:46.347Z,1018.31
2023-05-17T09:49:46.320Z,1018.33
2023-05-17T09:50:46.491Z,1018.29
2023-05-17T09:51:46.238Z,1018.23
2023-05-17T09:52:46.227Z,1018.23
2023-05-17T09:53:46.178Z,1018.19
2023-05-17T09:54:46.172Z,1018.25
2023-05-17T09:55:46.185Z,1018.21
2023-05-17T09:56:46.150Z,1018.23
2023-05-17T09:57:46.154Z,1018.25
2023-05-17T09:58:46.177Z,1018.23
2023-05-17T09:59:46.120Z,1018.25
2023-05-17T10:00:47.246Z,1018.27
2023-05-17T10:01:46.189Z,1018.25
2023-05-17T10:02:46.180Z,1018.27
2023-05-17T10:03:46.111Z,1018.22
2023-05-17T10:04:46.128Z,1018.17
2023-05-17T10:05:46.070Z,1018.18
2023-05-17T10:06:49.810Z,1017.97
2023-05-17T10:07:47.036Z,1018.23
2023-05-17T10:08:46.018Z,1018.15
2023-05-17T10:09:46.043Z,1018.18
2023-05-17T10:10:46.023Z,1018.14
2023-05-17T10:11:46.066Z,1018.15
2023-05-17T10:12:45.985Z,1018.12
2023-05-17T10:13:45.967Z,1018.13
2023-05-17T10:14:45.985Z,1018.08
2023-05-17T10:15:45.965Z,1018.07
2023-05-17T10:16:45.993Z,1018.07
2023-05-17T10:17:46.014Z,1018.11
2023-05-17T10:18:45.984Z,1018.14
2023-05-17T10:19:46.085Z,1018.08
2023-05-17T10:20:45.891Z,1018.16
2023-05-17T10:21:46.011Z,1018.08
2023-05-17T10:22:45.881Z,1018.05
2023-05-17T10:23:45.837Z,1017.98
2023-05-17T10:24:45.869Z,1018.07
2023-05-17T10:25:45.829Z,1018.09
2023-05-17T10:26:45.904Z,1018.09
2023-05-17T10:27:45.810Z,1018.08
2023-05-17T10:28:45.842Z,1018.09
2023-05-17T10:29:47.653Z,1018.01
2023-05-17T10:30:45.795Z,1018.04
2023-05-17T10:31:45.770Z,1017.99
2023-05-17T10:32:45.869Z,1017.99
2023-05-17T10:33:45.828Z,1017.98
2023-05-17T10:34:47.538Z,1018.05
2023-05-17T10:35:46.802Z,1018.05
2023-05-17T10:36:45.726Z,1017.92
2023-05-17T10:37:46.376Z,1017.99
2023-05-17T10:38:45.706Z,1018.09
2023-05-17T10:39:45.671Z,1018.15
2023-05-17T10:40:45.649Z,1018.00
2023-05-17T10:41:45.724Z,1017.96
2023-05-17T10:42:45.656Z,1017.91
2023-05-17T10:43:45.660Z,1017.94
2023-05-17T10:44:45.637Z,1018.05
2023-05-17T10:45:45.638Z,1017.97
2023-05-17T10:46:45.687Z,1018.03
2023-05-17T10:47:45.613Z,1017.86
2023-05-17T10:48:45.634Z,1017.92
2023-05-17T10:49:45.597Z,1017.81
2023-05-17T10:50:54.440Z,1017.89
2023-05-17T10:51:46.521Z,1017.90
2023-05-17T10:52:45.515Z,1018.00
2023-05-17T10:53:45.584Z,1017.94
2023-05-17T10:54:45.529Z,1017.93
2023-05-17T10:55:45.568Z,1017.92
2023-05-17T10:56:45.475Z,1017.86
2023-05-17T10:57:51.214Z,1017.84
2023-05-17T10:58:46.444Z,1017.91
2023-05-17T10:59:45.441Z,1017.86
2023-05-17T11:00:45.451Z,1017.80
2023-05-17T11:01:45.431Z,1017.75
2023-05-17T11:02:45.465Z,1017.77
2023-05-17T11:03:45.402Z,1017.78
2023-05-17T11:04:45.431Z,1017.80
2023-05-17T11:05:45.409Z,1017.80
2023-05-17T11:06:45.457Z,1017.70
2023-05-17T11:07:45.392Z,1017.70
2023-05-17T11:08:45.354Z,1017.62
2023-05-17T11:09:45.341Z,1017.67
2023-05-17T11:10:45.309Z,1017.70
2023-05-17T11:11:45.864Z,1017.76
2023-05-17T11:12:45.372Z,1017.67
2023-05-17T11:13:45.323Z,1017.63
2023-05-17T11:14:45.724Z,1017.75
2023-05-17T11:15:45.267Z,1017.72
2023-05-17T11:16:45.231Z,1017.76
2023-05-17T11:17:45.289Z,1017.73
2023-05-17T11:18:45.304Z,1017.71
2023-05-17T11:19:45.256Z,1017.63
2023-05-17T11:20:45.666Z,1017.63
2023-05-17T11:21:45.191Z,1017.51
2023-05-17T11:22:45.197Z,1017.69
2023-05-17T11:23:45.184Z,1017.67
2023-05-17T11:24:45.151Z,1017.75
2023-05-17T11:25:45.144Z,1017.58
2023-05-17T11:26:45.158Z,1017.63
2023-05-17T11:27:45.343Z,1017.65
2023-05-17T11:28:45.120Z,1017.63
2023-05-17T11:29:45.091Z,1017.68
2023-05-17T11:30:45.114Z,1017.71
2023-05-17T11:31:45.149Z,1017.76
2023-05-17T11:32:45.128Z,1017.80
2023-05-17T11:33:45.123Z,1017.72
2023-05-17T11:34:45.099Z,1017.78
2023-05-17T11:35:45.054Z,1017.70
2023-05-17T11:36:45.055Z,1017.67
2023-05-17T11:37:45.032Z,1017.60
2023-05-17T11:38:45.484Z,1017.67
2023-05-17T11:39:44.987Z,1017.69
2023-05-17T11:40:44.981Z,1017.72
2023-05-17T11:41:45.011Z,1017.67
2023-05-17T11:42:44.971Z,1017.62
2023-05-17T11:43:44.988Z,1017.55
2023-05-17T11:44:44.962Z,1017.69
2023-05-17T11:45:44.933Z,1017.52
2023-05-17T11:46:44.948Z,1017.49
2023-05-17T11:47:44.986Z,1017.67
2023-05-17T11:48:44.922Z,1017.57
2023-05-17T11:49:44.894Z,1017.64
2023-05-17T11:50:44.909Z,1017.46
2023-05-17T11:51:44.882Z,1017.48
2023-05-17T11:52:44.839Z,1017.54
2023-05-17T11:53:44.862Z,1017.51
2023-05-17T11:54:44.823Z,1017.46
2023-05-17T11:55:44.798Z,1017.41
2023-05-17T11:56:44.816Z,1017.53
2023-05-17T11:57:44.801Z,1017.48
2023-05-17T11:58:44.781Z,1017.41
2023-05-17T11:59:44.774Z,1017.43
2023-05-17T12:00:44.991Z,1017.46
2023-05-17T12:01:44.748Z,1017.44
2023-05-17T12:02:44.749Z,1017.39
2023-05-17T12:03:44.751Z,1017.46
2023-05-17T12:04:44.759Z,1017.55
2023-05-17T12:05:44.685Z,1017.51
2023-05-17T12:06:44.816Z,1017.48